Hlavní strana
METAR-TAF:

METAR-TAF

Letiště :

Damašek, Sýrie

zeměpisná šířka: 33-25N, zeměpisná délka: 036-31E, výška: 608 m

Aktuální stav počasí

Zpráva byla vytvořena před 46 minutami, v 03:00 UTC
Severovýchodní vítr 10 kt
Teplota 14°C
Vlhkost vzduchu 41%
Tlak 1019 hPa
Viditelnost 10 km a více
Žádná oblačnost pod 1500 m, nevyskytují se cumulonimby.

METAR: OSDI 050300Z 04010KT CAVOK 14/01 Q1019

Čas: 06:46 (03:46 UTC)

Předpověď počasí

Zpráva byla vytvořena před 5 hodinami a 56 minutami, v 21:50 UTC
Předpověď platná od 05 v 00 UTC do 06 v 06 UTC
Jihozápadní vítr 10 kt
Viditelnost 10 km a více
Žádná oblačnost pod 1500 m, nevyskytují se cumulonimby.
Dočasný
od 05 v 02 UTC do 05 v 06 UTC
vítr z různých směrů 3 kt

TAF: OSDI 042150Z 0500/0606 22010KT CAVOK TEMPO 0502/0506 VRB03KT 4000BR

Stav a předpovědi počasí z více než 4 000 letišť (zprávy METAR a TAF).

Červené a žluté tečky na mapě představují dostupné meteorologické stanice.

Když kurzor umístíte na tečku, zobrazí se název stanice.

Pak kliknutím zobrazíte stav a předpověď počasí.

Chcete-li změnit mapu, kliknutím na zelené tlačítko se znaménkem +mapu přiblížíte, kliknutím na zelené tlačítko se znaménkem – mapu oddálíte a kliknutím na zelené šipky přejdete na sousední mapy.


METAR-TAF: